createdAt,value
2023-04-01T00:00:26.836Z,98770.00
2023-04-01T00:02:53.828Z,98758.56
2023-04-01T00:05:20.892Z,98757.69
2023-04-01T00:07:47.892Z,98770.31
2023-04-01T00:10:15.410Z,98761.38
2023-04-01T00:12:42.632Z,98759.53
2023-04-01T00:15:13.237Z,98768.44
2023-04-01T00:17:40.127Z,98762.91
2023-04-01T00:20:08.919Z,98774.56
2023-04-01T00:22:35.996Z,98772.00
2023-04-01T00:25:03.971Z,98772.00
2023-04-01T00:27:31.000Z,98761.25
2023-04-01T00:29:58.031Z,98770.31
2023-04-01T00:32:25.143Z,98766.63
2023-04-01T00:34:52.833Z,98764.63
2023-04-01T00:37:22.000Z,98770.00
2023-04-01T00:39:48.803Z,98774.69
2023-04-01T00:42:15.664Z,98768.63
2023-04-01T00:44:48.962Z,98774.00
2023-04-01T00:47:15.813Z,98777.69
2023-04-01T00:49:51.096Z,98779.38
2023-04-01T00:52:26.799Z,98787.28
2023-04-01T00:55:02.227Z,98789.16
2023-04-01T00:57:38.249Z,98780.22
2023-04-01T01:00:12.324Z,98789.00
2023-04-01T01:02:41.669Z,98795.22
2023-04-01T01:05:10.918Z,98798.94
2023-04-01T01:07:51.004Z,98789.84
2023-04-01T01:10:34.892Z,98796.25
2023-04-01T01:13:37.083Z,98793.56
2023-04-01T01:16:19.454Z,98793.56
2023-04-01T01:20:25.914Z,98801.50
2023-04-01T01:23:30.805Z,98796.94
2023-04-01T01:26:23.335Z,98806.88
2023-04-01T01:29:30.778Z,98802.31
2023-04-01T01:32:26.932Z,98803.16
2023-04-01T01:35:32.328Z,98807.72
2023-04-01T01:38:11.724Z,98812.25
2023-04-01T01:40:45.537Z,98807.72
2023-04-01T01:43:20.689Z,98818.47
2023-04-01T01:45:54.088Z,98816.63
2023-04-01T01:48:23.603Z,98823.03
2023-04-01T01:50:52.122Z,98822.16
2023-04-01T01:53:20.049Z,98819.47
2023-04-01T01:55:48.762Z,98825.84
2023-04-01T01:58:29.448Z,98821.19
2023-04-01T02:01:02.032Z,98816.78
2023-04-01T02:03:32.799Z,98824.16
2023-04-01T02:06:04.893Z,98832.22
2023-04-01T02:08:50.608Z,98835.75
2023-04-01T02:11:22.518Z,98835.75
2023-04-01T02:14:06.555Z,98838.63
2023-04-01T02:16:55.607Z,98837.06
2023-04-01T02:19:32.432Z,98836.34
2023-04-01T02:22:06.775Z,98844.16
2023-04-01T02:24:36.983Z,98845.97
2023-04-01T02:27:04.821Z,98836.91
2023-04-01T02:29:32.997Z,98842.44
2023-04-01T02:32:01.763Z,98844.56
2023-04-01T02:34:29.326Z,98842.88
2023-04-01T02:36:57.821Z,98851.94
2023-04-01T02:39:26.555Z,98850.25
2023-04-01T02:41:54.184Z,98846.56
2023-04-01T02:44:21.189Z,98851.09
2023-04-01T02:46:48.145Z,98850.25
2023-04-01T02:49:15.323Z,98862.84
2023-04-01T02:51:42.511Z,98864.97
2023-04-01T02:54:10.069Z,98855.50
2023-04-01T02:56:46.633Z,98854.81
2023-04-01T02:59:13.733Z,98855.06
2023-04-01T03:01:40.705Z,98868.66
2023-04-01T03:04:07.581Z,98854.50
2023-04-01T03:06:34.424Z,98866.16
2023-04-01T03:09:01.216Z,98866.16
2023-04-01T03:11:28.129Z,98871.53
2023-04-01T03:13:54.936Z,98864.44
2023-04-01T03:16:21.765Z,98864.44
2023-04-01T03:18:53.553Z,98871.81
2023-04-01T03:21:25.696Z,98872.78
2023-04-01T03:23:53.804Z,98874.63
2023-04-01T03:26:20.835Z,98876.50
2023-04-01T03:28:47.745Z,98888.22
2023-04-01T03:31:19.364Z,98880.84
2023-04-01T03:33:52.927Z,98874.50
2023-04-01T03:36:19.932Z,98884.25
2023-04-01T03:38:48.026Z,98883.41
2023-04-01T03:41:20.086Z,98878.88
2023-04-01T03:43:47.079Z,98879.88
2023-04-01T03:46:21.721Z,98883.41
2023-04-01T03:48:48.837Z,98877.47
2023-04-01T03:51:15.872Z,98879.19
2023-04-01T03:53:42.816Z,98880.16
2023-04-01T03:56:10.397Z,98888.22
2023-04-01T03:58:39.816Z,98888.22
2023-04-01T04:01:21.718Z,98881.16
2023-04-01T04:03:51.896Z,98892.19
2023-04-01T04:06:20.280Z,98892.19
2023-04-01T04:08:48.267Z,98890.50
2023-04-01T04:11:15.481Z,98897.84
2023-04-01T04:13:44.186Z,98896.44
2023-04-01T04:16:12.922Z,98911.19
2023-04-01T04:18:45.856Z,98909.47
2023-04-01T04:21:15.257Z,98914.00
2023-04-01T04:23:44.160Z,98916.84
2023-04-01T04:26:16.260Z,98922.34
2023-04-01T04:28:47.598Z,98919.66
2023-04-01T04:31:25.535Z,98916.13
2023-04-01T04:33:54.679Z,98917.09
2023-04-01T04:36:23.327Z,98934.97
2023-04-01T04:38:51.725Z,98927.88
2023-04-01T04:41:20.592Z,98931.53
2023-04-01T04:43:56.664Z,98926.41
2023-04-01T04:46:25.834Z,98926.41
2023-04-01T04:48:59.243Z,98928.53
2023-04-01T04:51:26.648Z,98926.97
2023-04-01T04:53:53.622Z,98928.09
2023-04-01T04:56:31.746Z,98936.16
2023-04-01T04:59:06.418Z,98952.16
2023-04-01T05:01:42.721Z,98952.16
2023-04-01T05:04:09.738Z,98952.03
2023-04-01T05:06:36.758Z,98953.88
2023-04-01T05:09:04.333Z,98946.78
2023-04-01T05:11:31.182Z,98964.66
2023-04-01T05:13:58.131Z,98964.66
2023-04-01T05:16:25.257Z,98975.41
2023-04-01T05:18:52.415Z,98970.88
2023-04-01T05:21:19.474Z,98970.03
2023-04-01T05:23:46.748Z,98982.47
2023-04-01T05:26:15.826Z,98980.50
2023-04-01T05:28:43.785Z,98982.19
2023-04-01T05:31:11.090Z,98985.91
2023-04-01T05:33:44.145Z,98983.91
2023-04-01T05:36:15.350Z,98989.28
2023-04-01T05:38:43.460Z,98989.00
2023-04-01T05:41:12.967Z,98999.53
2023-04-01T05:43:43.954Z,99002.94
2023-04-01T05:46:46.188Z,99008.31
2023-04-01T05:49:20.132Z,99019.78
2023-04-01T05:51:47.820Z,99021.50
2023-04-01T05:54:14.644Z,99025.88
2023-04-01T05:56:41.940Z,99029.25
2023-04-01T05:59:12.485Z,99028.16
2023-04-01T06:01:40.582Z,99030.97
2023-04-01T06:04:07.809Z,99030.97
2023-04-01T06:06:36.315Z,99036.38
2023-04-01T06:09:14.253Z,99041.47
2023-04-01T06:12:38.819Z,99045.72
2023-04-01T06:15:17.730Z,99058.19
2023-04-01T06:18:31.165Z,99058.91
2023-04-01T06:21:24.231Z,99062.19
2023-04-01T06:24:52.393Z,99065.31
2023-04-01T06:27:37.924Z,99071.41
2023-04-01T06:30:31.025Z,99077.50
2023-04-01T06:33:19.858Z,99080.19
2023-04-01T06:36:26.256Z,99089.69
2023-04-01T06:39:06.141Z,99092.25
2023-04-01T06:42:03.106Z,99089.13
2023-04-01T06:45:02.652Z,99099.34
2023-04-01T06:48:12.276Z,99101.91
2023-04-01T06:51:19.391Z,99104.16
2023-04-01T06:54:19.698Z,99110.13
2023-04-01T06:57:42.222Z,99103.63
2023-04-01T07:00:40.180Z,99105.31
2023-04-01T07:03:41.062Z,99120.34
2023-04-01T07:06:32.828Z,99113.97
2023-04-01T07:09:09.796Z,99124.63
2023-04-01T07:12:31.867Z,99120.06
2023-04-01T07:15:32.102Z,99137.38
2023-04-01T07:18:17.555Z,99139.19
2023-04-01T07:20:46.167Z,99148.84
2023-04-01T07:23:29.955Z,99154.25
2023-04-01T07:26:21.815Z,99139.94
2023-04-01T07:28:55.635Z,99155.22
2023-04-01T07:32:28.508Z,99166.84
2023-04-01T07:35:17.934Z,99165.72
2023-04-01T07:38:07.123Z,99172.53
2023-04-01T07:41:11.437Z,99170.28
2023-04-01T07:44:28.112Z,99173.41
2023-04-01T07:47:29.381Z,99180.47
2023-04-01T07:50:17.359Z,99194.69
2023-04-01T07:53:01.680Z,99190.72
2023-04-01T07:55:44.728Z,99184.31
2023-04-01T07:58:51.264Z,99194.13
2023-04-01T08:02:03.500Z,99199.78
2023-04-01T08:04:49.532Z,99196.66
2023-04-01T08:07:29.114Z,99203.75
2023-04-01T08:10:23.025Z,99212.53
2023-04-01T08:13:45.477Z,99220.88
2023-04-01T08:17:11.883Z,99222.16
2023-04-01T08:20:04.103Z,99222.16
2023-04-01T08:22:50.584Z,99236.91
2023-04-01T08:25:29.661Z,99227.97
2023-04-01T08:28:09.396Z,99238.59
2023-04-01T08:31:03.392Z,99243.72
2023-04-01T08:33:33.463Z,99240.75
2023-04-01T08:36:32.534Z,99241.22
2023-04-01T08:39:37.558Z,99252.81
2023-04-01T08:42:04.336Z,99257.38
2023-04-01T08:45:14.249Z,99255.38
2023-04-01T08:48:09.695Z,99268.72
2023-04-01T08:51:08.694Z,99267.59
2023-04-01T08:54:30.517Z,99268.75
2023-04-01T08:57:09.084Z,99277.53
2023-04-01T09:00:21.450Z,99291.47
2023-04-01T09:03:58.514Z,99285.81
2023-04-01T09:06:59.124Z,99299.28
2023-04-01T09:10:05.895Z,99294.88
2023-04-01T09:12:55.693Z,99307.63
2023-04-01T09:15:48.062Z,99306.78
2023-04-01T09:18:49.064Z,99315.25
2023-04-01T09:22:01.660Z,99309.03
2023-04-01T09:25:11.237Z,99321.38
2023-04-01T09:27:46.111Z,99325.91
2023-04-01T09:31:00.330Z,99331.44
2023-04-01T09:34:20.219Z,99332.41
2023-04-01T09:37:30.691Z,99333.16
2023-04-01T09:40:42.226Z,99337.66
2023-04-01T09:43:30.883Z,99338.53
2023-04-01T09:46:34.122Z,99343.63
2023-04-01T09:49:25.786Z,99341.94
2023-04-01T09:52:13.941Z,99342.41
2023-04-01T09:55:07.731Z,99348.50
2023-04-01T09:58:08.482Z,99353.47
2023-04-01T10:01:41.862Z,99361.56
2023-04-01T10:05:05.654Z,99363.03
2023-04-01T10:08:33.126Z,99362.16
2023-04-01T10:11:14.464Z,99366.72
2023-04-01T10:14:02.775Z,99370.25
2023-04-01T10:17:06.838Z,99379.06
2023-04-01T10:20:01.418Z,99379.91
2023-04-01T10:23:06.873Z,99376.66
2023-04-01T10:25:56.942Z,99382.63
2023-04-01T10:29:12.839Z,99382.94
2023-04-01T10:32:37.698Z,99389.75
2023-04-01T10:35:44.669Z,99383.38
2023-04-01T10:38:51.817Z,99392.91
2023-04-01T10:41:36.917Z,99398.31
2023-04-01T10:44:36.177Z,99394.59
2023-04-01T10:47:41.540Z,99399.97
2023-04-01T10:50:45.135Z,99404.66
2023-04-01T10:54:12.443Z,99396.56
2023-04-01T10:57:10.673Z,99406.53
2023-04-01T11:00:28.289Z,99414.81
2023-04-01T11:03:22.504Z,99414.38
2023-04-01T11:06:47.818Z,99419.13
2023-04-01T11:09:21.218Z,99419.84
2023-04-01T11:12:28.836Z,99422.53
2023-04-01T11:15:20.402Z,99421.94
2023-04-01T11:18:17.721Z,99425.03
2023-04-01T11:20:53.868Z,99428.75
2023-04-01T11:23:58.330Z,99432.16
2023-04-01T11:26:59.631Z,99436.25
2023-04-01T11:30:04.848Z,99433.25
2023-04-01T11:32:58.160Z,99442.31
2023-04-01T11:36:07.286Z,99444.31
2023-04-01T11:39:11.918Z,99446.28
2023-04-01T11:42:19.180Z,99456.09
2023-04-01T11:45:21.233Z,99454.25
2023-04-01T11:48:23.485Z,99451.41
2023-04-01T11:51:35.081Z,99460.50
2023-04-01T11:54:38.488Z,99461.38
2023-04-01T11:57:26.527Z,99471.72
2023-04-01T12:00:21.832Z,99468.91
2023-04-01T12:03:09.952Z,99479.28
2023-04-01T12:06:09.397Z,99483.69
2023-04-01T12:08:54.652Z,99488.81
2023-04-01T12:11:42.595Z,99492.63
2023-04-01T12:14:27.855Z,99482.72
2023-04-01T12:17:16.284Z,99493.75
2023-04-01T12:20:16.495Z,99499.16
2023-04-01T12:22:55.892Z,99502.84
2023-04-01T12:26:01.840Z,99509.94
2023-04-01T12:28:51.192Z,99508.22
2023-04-01T12:31:48.438Z,99513.91
2023-04-01T12:34:21.106Z,99513.47
2023-04-01T12:37:42.085Z,99521.31
2023-04-01T12:40:45.448Z,99527.28
2023-04-01T12:43:49.440Z,99523.56
2023-04-01T12:46:59.427Z,99528.13
2023-04-01T12:49:55.878Z,99541.16
2023-04-01T12:52:55.583Z,99535.06
2023-04-01T12:55:50.645Z,99545.13
2023-04-01T12:58:53.977Z,99533.50
2023-04-01T13:02:02.314Z,99536.44
2023-04-01T13:04:32.120Z,99545.38
2023-04-01T13:07:35.511Z,99544.28
2023-04-01T13:10:26.398Z,99540.72
2023-04-01T13:13:46.291Z,99557.56
2023-04-01T13:16:20.836Z,99558.16
2023-04-01T13:19:09.298Z,99560.75
2023-04-01T13:22:01.230Z,99566.19
2023-04-01T13:24:40.290Z,99569.81
2023-04-01T13:27:40.307Z,99578.63
2023-04-01T13:30:34.319Z,99567.97
2023-04-01T13:33:59.931Z,99584.69
2023-04-01T13:37:06.674Z,99582.53
2023-04-01T13:39:53.513Z,99585.50
2023-04-01T13:42:30.687Z,99587.47
2023-04-01T13:45:16.039Z,99596.56
2023-04-01T13:48:28.117Z,99593.13
2023-04-01T13:51:27.957Z,99596.56
2023-04-01T13:54:37.147Z,99599.97
2023-04-01T13:57:56.894Z,99611.06
2023-04-01T14:00:57.467Z,99605.88
2023-04-01T14:03:42.587Z,99614.47
2023-04-01T14:06:32.322Z,99601.72
2023-04-01T14:10:05.933Z,99606.53
2023-04-01T14:13:24.229Z,99616.59
2023-04-01T14:16:01.316Z,99622.97
2023-04-01T14:19:08.163Z,99623.97
2023-04-01T14:21:57.318Z,99633.19
2023-04-01T14:24:47.034Z,99630.47
2023-04-01T14:27:26.488Z,99631.91
2023-04-01T14:30:02.608Z,99634.25
2023-04-01T14:33:17.865Z,99638.75
2023-04-01T14:36:19.986Z,99628.84
2023-04-01T14:39:36.737Z,99642.03
2023-04-01T14:42:28.097Z,99648.56
2023-04-01T14:45:32.653Z,99644.31
2023-04-01T14:48:24.246Z,99649.97
2023-04-01T14:50:56.531Z,99653.03
2023-04-01T14:53:26.673Z,99653.16
2023-04-01T14:55:58.427Z,99658.56
2023-04-01T14:58:46.448Z,99666.50
2023-04-01T15:01:43.337Z,99662.00
2023-04-01T15:04:31.453Z,99667.41
2023-04-01T15:07:43.366Z,99673.50
2023-04-01T15:10:44.200Z,99670.81
2023-04-01T15:13:29.702Z,99674.72
2023-04-01T15:16:16.026Z,99685.53
2023-04-01T15:19:16.732Z,99687.00
2023-04-01T15:22:04.511Z,99690.41
2023-04-01T15:25:18.671Z,99697.50
2023-04-01T15:28:00.795Z,99699.22
2023-04-01T15:30:53.428Z,99701.91
2023-04-01T15:34:00.611Z,99708.56
2023-04-01T15:37:20.984Z,99705.41
2023-04-01T15:40:18.090Z,99707.38
2023-04-01T15:43:04.343Z,99719.84
2023-04-01T15:45:51.222Z,99716.44
2023-04-01T15:48:43.065Z,99717.44
2023-04-01T15:51:33.241Z,99727.34
2023-04-01T15:54:48.393Z,99725.53
2023-04-01T15:58:31.482Z,99731.66
2023-04-01T16:01:28.249Z,99729.19
2023-04-01T16:04:52.412Z,99729.19
2023-04-01T16:07:49.664Z,99732.63
2023-04-01T16:10:53.238Z,99734.34
2023-04-01T16:13:39.356Z,99734.06
2023-04-01T16:16:12.329Z,99742.16
2023-04-01T16:18:59.693Z,99741.19
2023-04-01T16:22:01.684Z,99742.91
2023-04-01T16:25:07.206Z,99758.22
2023-04-01T16:28:00.031Z,99755.63
2023-04-01T16:30:41.653Z,99764.22
2023-04-01T16:33:55.271Z,99756.00
2023-04-01T16:37:18.196Z,99773.91
2023-04-01T16:40:06.268Z,99773.91
2023-04-01T16:43:10.471Z,99781.59
2023-04-01T16:45:55.558Z,99791.13
2023-04-01T16:48:46.412Z,99790.88
2023-04-01T16:51:17.944Z,99797.88
2023-04-01T16:53:53.548Z,99808.69
2023-04-01T16:56:37.970Z,99813.19
2023-04-01T16:59:22.189Z,99818.34
2023-04-01T17:02:01.101Z,99829.38
2023-04-01T17:04:47.955Z,99832.47
2023-04-01T17:07:46.687Z,99830.16
2023-04-01T17:10:29.372Z,99844.88
2023-04-01T17:13:14.204Z,99848.53
2023-04-01T17:16:17.940Z,99857.63
2023-04-01T17:19:28.273Z,99868.19
2023-04-01T17:22:38.253Z,99866.22
2023-04-01T17:25:16.904Z,99878.47
2023-04-01T17:28:43.771Z,99887.66
2023-04-01T17:31:47.717Z,99891.97
2023-04-01T17:34:38.469Z,99904.72
2023-04-01T17:37:17.188Z,99906.09
2023-04-01T17:39:55.986Z,99908.19
2023-04-01T17:43:03.375Z,99919.09
2023-04-01T17:46:02.431Z,99924.59
2023-04-01T17:48:55.895Z,99933.66
2023-04-01T17:51:50.571Z,99939.53
2023-04-01T17:54:55.391Z,99952.06
2023-04-01T17:57:37.413Z,99950.34
2023-04-01T18:00:13.230Z,99957.69
2023-04-01T18:03:01.352Z,99958.19
2023-04-01T18:05:38.397Z,99963.44
2023-04-01T18:08:57.969Z,99974.84
2023-04-01T18:11:46.356Z,99984.41
2023-04-01T18:14:32.220Z,99984.41
2023-04-01T18:17:15.011Z,99995.66
2023-04-01T18:20:32.894Z,100006.94
2023-04-01T18:23:04.489Z,100025.31
2023-04-01T18:25:41.746Z,100024.06
2023-04-01T18:28:57.348Z,100028.22
2023-04-01T18:31:39.362Z,100042.38
2023-04-01T18:34:30.669Z,100054.38
2023-04-01T18:37:40.543Z,100049.22
2023-04-01T18:40:16.392Z,100064.16
2023-04-01T18:43:13.002Z,100070.53
2023-04-01T18:46:08.081Z,100073.69
2023-04-01T18:49:31.372Z,100083.97
2023-04-01T18:52:10.623Z,100086.16
2023-04-01T18:55:36.196Z,100101.66
2023-04-01T18:58:26.515Z,100106.13
2023-04-01T19:01:25.102Z,100112.91
2023-04-01T19:04:22.506Z,100116.81
2023-04-01T19:06:56.655Z,100129.53
2023-04-01T19:09:51.573Z,100118.97
2023-04-01T19:12:40.320Z,100150.34
2023-04-01T19:15:23.057Z,100143.56
2023-04-01T19:18:15.301Z,100146.16
2023-04-01T19:20:58.328Z,100155.06
2023-04-01T19:23:53.970Z,100153.69
2023-04-01T19:26:30.592Z,100170.50
2023-04-01T19:29:24.565Z,100164.00
2023-04-01T19:32:22.338Z,100175.44
2023-04-01T19:35:43.300Z,100175.88
2023-04-01T19:38:36.617Z,100191.38
2023-04-01T19:42:10.413Z,100193.94
2023-04-01T19:44:52.819Z,100192.66
2023-04-01T19:47:54.973Z,100207.72
2023-04-01T19:50:50.825Z,100212.25
2023-04-01T19:53:46.022Z,100213.09
2023-04-01T19:56:26.507Z,100221.16
2023-04-01T19:59:25.756Z,100229.88
2023-04-01T20:02:28.259Z,100236.75
2023-04-01T20:04:57.373Z,100245.16
2023-04-01T20:07:44.841Z,100254.41
2023-04-01T20:10:19.539Z,100261.47
2023-04-01T20:13:09.872Z,100259.78
2023-04-01T20:15:42.441Z,100270.53
2023-04-01T20:18:25.993Z,100280.31
2023-04-01T20:21:16.018Z,100290.13
2023-04-01T20:23:52.166Z,100287.09
2023-04-01T20:26:52.101Z,100297.84
2023-04-01T20:29:56.884Z,100306.44
2023-04-01T20:32:35.814Z,100304.94
2023-04-01T20:35:31.328Z,100315.03
2023-04-01T20:38:32.019Z,100323.19
2023-04-01T20:41:14.453Z,100321.47
2023-04-01T20:44:05.516Z,100332.44
2023-04-01T20:47:29.771Z,100336.28
2023-04-01T20:50:19.607Z,100341.88
2023-04-01T20:53:13.826Z,100350.78
2023-04-01T20:56:31.145Z,100350.91
2023-04-01T20:59:26.681Z,100361.22
2023-04-01T21:02:18.027Z,100355.34
2023-04-01T21:05:41.511Z,100372.56
2023-04-01T21:08:24.627Z,100375.13
2023-04-01T21:11:06.349Z,100373.59
2023-04-01T21:14:23.103Z,100387.34
2023-04-01T21:17:37.178Z,100394.75
2023-04-01T21:20:14.942Z,100397.81
2023-04-01T21:23:13.908Z,100407.03
2023-04-01T21:26:04.985Z,100403.75
2023-04-01T21:28:47.005Z,100421.81
2023-04-01T21:31:58.548Z,100429.97
2023-04-01T21:34:53.381Z,100429.09
2023-04-01T21:37:55.071Z,100438.09
2023-04-01T21:40:55.975Z,100441.84
2023-04-01T21:43:56.607Z,100453.47
2023-04-01T21:46:51.704Z,100456.16
2023-04-01T21:49:40.683Z,100463.84
2023-04-01T21:52:45.857Z,100463.25
2023-04-01T21:55:49.286Z,100465.94
2023-04-01T21:58:56.399Z,100478.72
2023-04-01T22:01:54.159Z,100474.41
2023-04-01T22:04:47.569Z,100489.25
2023-04-01T22:07:20.032Z,100498.72
2023-04-01T22:10:12.217Z,100506.88
2023-04-01T22:13:34.221Z,100501.56
2023-04-01T22:16:20.264Z,100514.53
2023-04-01T22:19:07.745Z,100519.22
2023-04-01T22:22:02.525Z,100526.38
2023-04-01T22:25:29.886Z,100537.25
2023-04-01T22:28:13.671Z,100533.75
2023-04-01T22:30:51.043Z,100540.25
2023-04-01T22:33:56.334Z,100547.38
2023-04-01T22:36:50.072Z,100546.94
2023-04-01T22:39:56.727Z,100550.78
2023-04-01T22:42:45.754Z,100567.03
2023-04-01T22:46:12.186Z,100561.88
2023-04-01T22:49:02.883Z,100572.94
2023-04-01T22:51:54.443Z,100562.75
2023-04-01T22:54:30.644Z,100581.25
2023-04-01T22:57:15.219Z,100586.91
2023-04-01T23:00:18.674Z,100589.91
2023-04-01T23:03:23.030Z,100592.78
2023-04-01T23:05:54.919Z,100594.66
2023-04-01T23:08:47.225Z,100596.50
2023-04-01T23:11:31.443Z,100609.28
2023-04-01T23:14:30.274Z,100611.19
2023-04-01T23:17:21.349Z,100612.94
2023-04-01T23:19:58.942Z,100622.88
2023-04-01T23:22:57.917Z,100627.47
2023-04-01T23:26:02.090Z,100633.13
2023-04-01T23:28:53.106Z,100638.69
2023-04-01T23:31:41.477Z,100645.13
2023-04-01T23:34:14.429Z,100654.94
2023-04-01T23:36:49.543Z,100654.06
2023-04-01T23:39:37.511Z,100659.44
2023-04-01T23:42:27.535Z,100660.22
2023-04-01T23:44:59.640Z,100669.28
2023-04-01T23:47:36.124Z,100672.91
2023-04-01T23:50:21.960Z,100678.28
2023-04-01T23:53:10.954Z,100685.34
2023-04-01T23:55:43.167Z,100692.53
2023-04-01T23:58:11.880Z,100694.03
